createdAt,value
2023-11-30T00:00:07.589Z,10.75
2023-11-30T00:02:38.305Z,9.48
2023-11-30T00:05:25.615Z,14.80
2023-11-30T00:07:56.270Z,17.42
2023-11-30T00:10:27.996Z,13.88
2023-11-30T00:13:01.044Z,15.73
2023-11-30T00:15:34.897Z,13.00
2023-11-30T00:18:08.192Z,11.48
2023-11-30T00:20:41.353Z,16.58
2023-11-30T00:23:20.929Z,22.73
2023-11-30T00:25:51.757Z,15.02
2023-11-30T00:28:27.693Z,8.65
2023-11-30T00:33:48.372Z,4.25
2023-11-30T00:36:19.718Z,2.63
2023-11-30T00:38:59.458Z,2.40
2023-11-30T00:41:38.427Z,2.90
2023-11-30T00:44:24.664Z,2.10
2023-11-30T00:46:59.719Z,2.33
2023-11-30T00:49:34.907Z,3.03
2023-11-30T00:52:09.306Z,2.33
2023-11-30T00:54:56.938Z,1.98
2023-11-30T00:57:34.044Z,2.22
2023-11-30T01:00:14.175Z,2.38
2023-11-30T01:02:47.333Z,4.10
2023-11-30T01:05:18.563Z,3.92
2023-11-30T01:10:37.176Z,4.40
2023-11-30T01:13:07.517Z,3.00
2023-11-30T01:15:38.749Z,3.70
2023-11-30T01:18:09.399Z,3.13
2023-11-30T01:20:41.203Z,3.15
2023-11-30T01:23:11.690Z,3.03
2023-11-30T01:25:42.405Z,2.25
2023-11-30T01:28:12.619Z,2.83
2023-11-30T01:30:42.966Z,2.13
2023-11-30T01:33:14.464Z,2.30
2023-11-30T01:35:47.504Z,2.30
2023-11-30T01:38:17.734Z,2.47
2023-11-30T01:40:49.124Z,2.22
2023-11-30T01:43:22.069Z,2.75
2023-11-30T01:46:02.629Z,2.70
2023-11-30T01:48:37.285Z,2.40
2023-11-30T01:51:10.252Z,5.97
2023-11-30T01:53:42.021Z,15.52
2023-11-30T01:56:15.274Z,22.63
2023-11-30T01:58:47.321Z,33.20
2023-11-30T02:01:19.689Z,33.78
2023-11-30T02:03:49.981Z,33.97
2023-11-30T02:06:21.910Z,33.67
2023-11-30T02:08:53.676Z,28.48
2023-11-30T02:11:24.336Z,27.52
2023-11-30T02:13:56.605Z,26.77
2023-11-30T02:16:29.209Z,25.67
2023-11-30T02:19:00.933Z,24.40
2023-11-30T02:21:34.576Z,21.60
2023-11-30T02:24:05.173Z,16.83
2023-11-30T02:26:36.179Z,23.17
2023-11-30T02:29:07.287Z,27.13
2023-11-30T02:31:38.075Z,32.00
2023-11-30T02:34:08.977Z,34.10
2023-11-30T02:36:39.373Z,31.30
2023-11-30T02:39:09.627Z,35.83
2023-11-30T02:41:40.727Z,33.15
2023-11-30T02:44:12.723Z,33.67
2023-11-30T02:46:43.893Z,21.63
2023-11-30T02:49:14.524Z,32.50
2023-11-30T02:51:44.748Z,36.92
2023-11-30T02:54:14.998Z,36.88
2023-11-30T02:56:47.767Z,37.03
2023-11-30T02:59:18.970Z,34.85
2023-11-30T03:01:51.009Z,37.60
2023-11-30T03:04:22.456Z,34.67
2023-11-30T03:06:54.577Z,33.28
2023-11-30T03:09:25.297Z,31.50
2023-11-30T03:11:56.102Z,35.90
2023-11-30T03:14:28.333Z,29.30
2023-11-30T03:16:59.743Z,23.95
2023-11-30T03:19:30.862Z,22.98
2023-11-30T03:22:01.340Z,27.77
2023-11-30T03:24:32.713Z,25.95
2023-11-30T03:27:03.243Z,27.45
2023-11-30T03:29:33.489Z,27.45
2023-11-30T03:32:03.491Z,21.75
2023-11-30T03:34:33.660Z,24.15
2023-11-30T03:37:03.981Z,21.38
2023-11-30T03:39:35.073Z,20.63
2023-11-30T03:42:06.374Z,24.67
2023-11-30T03:44:36.554Z,26.65
2023-11-30T03:47:06.909Z,25.75
2023-11-30T03:49:37.735Z,24.40
2023-11-30T03:52:08.906Z,20.63
2023-11-30T03:54:41.033Z,19.83
2023-11-30T03:57:11.765Z,25.02
2023-11-30T03:59:42.406Z,20.60
2023-11-30T04:02:13.495Z,26.55
2023-11-30T04:04:45.410Z,27.10
2023-11-30T04:07:16.825Z,23.25
2023-11-30T04:09:49.369Z,20.15
2023-11-30T04:12:20.553Z,21.23
2023-11-30T04:14:51.422Z,19.13
2023-11-30T04:17:22.410Z,19.67
2023-11-30T04:19:53.148Z,21.85
2023-11-30T04:22:24.286Z,28.02
2023-11-30T04:24:55.859Z,22.13
2023-11-30T04:27:26.626Z,24.80
2023-11-30T04:29:57.744Z,20.88
2023-11-30T04:32:29.339Z,22.45
2023-11-30T04:34:59.989Z,18.65
2023-11-30T04:37:32.683Z,23.30
2023-11-30T04:40:04.038Z,22.60
2023-11-30T04:42:34.636Z,18.35
2023-11-30T04:45:05.417Z,22.27
2023-11-30T04:47:38.682Z,19.85
2023-11-30T04:50:10.164Z,17.73
2023-11-30T04:52:42.109Z,25.02
2023-11-30T04:55:13.268Z,24.75
2023-11-30T04:57:45.390Z,26.15
2023-11-30T05:00:17.181Z,21.33
2023-11-30T05:03:00.086Z,25.50
2023-11-30T05:05:31.565Z,17.05
2023-11-30T05:08:02.280Z,21.63
2023-11-30T05:10:34.270Z,21.40
2023-11-30T05:13:04.979Z,20.73
2023-11-30T05:15:41.419Z,24.13
2023-11-30T05:18:12.383Z,24.40
2023-11-30T05:20:43.868Z,26.42
2023-11-30T05:23:15.274Z,22.70
2023-11-30T05:25:45.207Z,22.23
2023-11-30T05:28:15.394Z,25.08
2023-11-30T05:30:46.513Z,25.20
2023-11-30T05:33:17.778Z,27.45
2023-11-30T05:35:49.578Z,23.42
2023-11-30T05:38:21.936Z,18.65
2023-11-30T05:40:53.357Z,19.50
2023-11-30T05:43:25.682Z,16.88
2023-11-30T05:45:56.755Z,19.95
2023-11-30T05:48:27.708Z,20.88
2023-11-30T05:50:57.997Z,19.00
2023-11-30T05:53:28.755Z,20.63
2023-11-30T05:55:59.638Z,20.33
2023-11-30T05:58:31.285Z,23.75
2023-11-30T06:01:02.761Z,27.52
2023-11-30T06:03:34.244Z,32.72
2023-11-30T06:06:04.551Z,31.80
2023-11-30T06:08:35.856Z,34.60
2023-11-30T06:11:06.321Z,36.47
2023-11-30T06:13:37.112Z,39.63
2023-11-30T06:16:11.451Z,39.53
2023-11-30T06:18:42.363Z,42.90
2023-11-30T06:21:12.706Z,43.63
2023-11-30T06:23:42.749Z,39.72
2023-11-30T06:26:13.177Z,39.65
2023-11-30T06:28:43.206Z,37.22
2023-11-30T06:31:16.697Z,33.47
2023-11-30T06:33:47.281Z,33.90
2023-11-30T06:36:17.617Z,31.63
2023-11-30T06:38:48.221Z,30.30
2023-11-30T06:41:18.433Z,28.95
2023-11-30T06:43:50.504Z,26.90
2023-11-30T06:46:29.593Z,30.02
2023-11-30T06:49:00.207Z,24.67
2023-11-30T06:51:31.041Z,22.52
2023-11-30T06:54:02.184Z,23.40
2023-11-30T06:56:32.815Z,23.17
2023-11-30T06:59:03.132Z,22.92
2023-11-30T07:01:33.533Z,27.05
2023-11-30T07:04:04.726Z,25.17
2023-11-30T07:06:35.033Z,22.50
2023-11-30T07:09:07.233Z,22.17
2023-11-30T07:11:37.821Z,27.88
2023-11-30T07:14:09.263Z,27.98
2023-11-30T07:16:41.530Z,25.00
2023-11-30T07:19:13.670Z,26.52
2023-11-30T07:21:44.970Z,27.85
2023-11-30T07:24:15.536Z,28.20
2023-11-30T07:26:51.009Z,23.92
2023-11-30T07:29:23.310Z,22.90
2023-11-30T07:31:56.525Z,22.67
2023-11-30T07:34:27.697Z,22.80
2023-11-30T07:36:57.917Z,23.67
2023-11-30T07:39:27.851Z,20.83
2023-11-30T07:41:58.006Z,21.95
2023-11-30T07:44:30.927Z,24.70
2023-11-30T07:47:02.938Z,25.17
2023-11-30T07:49:36.529Z,27.88
2023-11-30T07:52:07.159Z,25.45
2023-11-30T07:54:37.494Z,21.95
2023-11-30T07:57:07.996Z,21.02
2023-11-30T07:59:38.682Z,23.25
2023-11-30T08:02:10.860Z,23.02
2023-11-30T08:04:44.551Z,25.45
2023-11-30T08:07:16.427Z,28.20
2023-11-30T08:09:50.583Z,26.42
2023-11-30T08:12:21.679Z,26.05
2023-11-30T08:14:51.962Z,31.63
2023-11-30T08:17:25.929Z,24.70
2023-11-30T08:19:58.746Z,23.55
2023-11-30T08:22:29.172Z,24.95
2023-11-30T08:25:00.315Z,26.27
2023-11-30T08:27:31.478Z,26.83
2023-11-30T08:30:02.679Z,23.33
2023-11-30T08:32:33.474Z,28.52
2023-11-30T08:35:04.253Z,24.60
2023-11-30T08:37:35.119Z,21.83
2023-11-30T08:40:08.159Z,24.20
2023-11-30T08:42:40.425Z,22.10
2023-11-30T08:45:15.014Z,22.42
2023-11-30T08:47:46.995Z,22.98
2023-11-30T08:50:20.658Z,21.27
2023-11-30T08:52:51.521Z,24.17
2023-11-30T08:55:22.387Z,25.10
2023-11-30T08:57:53.704Z,20.88
2023-11-30T09:00:25.238Z,19.23
2023-11-30T09:02:59.853Z,21.23
2023-11-30T09:05:33.574Z,23.70
2023-11-30T09:08:05.731Z,24.02
2023-11-30T09:10:37.341Z,26.23
2023-11-30T09:13:11.329Z,27.17
2023-11-30T09:15:42.471Z,26.20
2023-11-30T09:18:14.511Z,23.83
2023-11-30T09:20:48.651Z,28.20
2023-11-30T09:23:19.253Z,29.08
2023-11-30T09:25:52.573Z,29.48
2023-11-30T09:28:26.040Z,28.40
2023-11-30T09:30:57.465Z,29.25
2023-11-30T09:33:32.312Z,29.60
2023-11-30T09:36:03.743Z,31.10
2023-11-30T09:38:35.804Z,33.50
2023-11-30T09:41:09.188Z,35.08
2023-11-30T09:43:40.386Z,31.30
2023-11-30T09:46:11.989Z,30.17
2023-11-30T09:48:44.948Z,28.17
2023-11-30T09:51:23.424Z,27.33
2023-11-30T09:53:54.115Z,28.23
2023-11-30T09:56:25.492Z,28.83
2023-11-30T09:58:58.128Z,29.80
2023-11-30T10:01:29.421Z,29.23
2023-11-30T10:04:15.065Z,26.55
2023-11-30T10:06:50.546Z,26.52
2023-11-30T10:09:25.211Z,31.40
2023-11-30T10:11:57.039Z,35.90
2023-11-30T10:14:29.204Z,30.88
2023-11-30T10:17:04.948Z,32.83
2023-11-30T10:19:35.964Z,25.35
2023-11-30T10:22:06.762Z,24.83
2023-11-30T10:24:37.560Z,23.25
2023-11-30T10:27:14.344Z,24.45
2023-11-30T10:29:51.194Z,25.23
2023-11-30T10:32:26.595Z,24.10
2023-11-30T10:35:02.507Z,22.73
2023-11-30T10:37:37.169Z,22.40
2023-11-30T10:40:13.089Z,21.98
2023-11-30T10:42:48.294Z,20.83
2023-11-30T10:45:21.228Z,30.38
2023-11-30T10:47:53.935Z,28.98
2023-11-30T10:50:25.085Z,22.63
2023-11-30T10:52:57.324Z,26.33
2023-11-30T10:55:29.030Z,26.77
2023-11-30T10:58:00.317Z,25.15
2023-11-30T11:00:37.445Z,24.42
2023-11-30T11:03:12.587Z,23.88
2023-11-30T11:05:48.240Z,16.52
2023-11-30T11:08:20.688Z,22.77
2023-11-30T11:10:53.307Z,29.80
2023-11-30T11:13:29.032Z,21.95
2023-11-30T11:16:02.451Z,25.08
2023-11-30T11:18:34.575Z,26.17
2023-11-30T11:21:06.432Z,20.73
2023-11-30T11:23:42.305Z,28.73
2023-11-30T11:26:17.074Z,30.65
2023-11-30T11:28:49.585Z,28.02
2023-11-30T11:31:22.267Z,23.65
2023-11-30T11:33:54.131Z,31.60
2023-11-30T11:36:25.501Z,25.20
2023-11-30T11:38:55.822Z,19.48
2023-11-30T11:41:26.703Z,18.48
2023-11-30T11:43:58.804Z,25.95
2023-11-30T11:46:30.315Z,23.85
2023-11-30T11:49:00.898Z,20.30
2023-11-30T11:51:32.920Z,26.25
2023-11-30T11:54:05.540Z,18.33
2023-11-30T11:56:55.983Z,19.48
2023-11-30T11:59:34.435Z,20.42
2023-11-30T12:02:09.508Z,24.90
2023-11-30T12:04:40.117Z,22.20
2023-11-30T12:07:20.424Z,17.00
2023-11-30T12:09:59.137Z,23.00
2023-11-30T12:12:38.068Z,16.35
2023-11-30T12:15:08.914Z,17.73
2023-11-30T12:17:42.450Z,20.90
2023-11-30T12:20:13.842Z,24.67
2023-11-30T12:22:44.816Z,26.27
2023-11-30T12:25:16.316Z,20.52
2023-11-30T12:27:47.379Z,29.02
2023-11-30T12:30:17.941Z,25.60
2023-11-30T12:32:52.694Z,27.95
2023-11-30T12:35:28.643Z,26.38
2023-11-30T12:38:01.600Z,22.40
2023-11-30T12:40:33.675Z,21.60
2023-11-30T12:43:04.393Z,19.05
2023-11-30T12:45:34.701Z,18.92
2023-11-30T12:48:06.672Z,14.52
2023-11-30T12:50:37.194Z,23.45
2023-11-30T12:53:07.890Z,12.95
2023-11-30T12:55:38.179Z,21.13
2023-11-30T12:58:08.496Z,20.23
2023-11-30T13:00:40.350Z,13.98
2023-11-30T13:03:11.221Z,17.45
2023-11-30T13:05:43.554Z,14.65
2023-11-30T13:08:14.710Z,18.70
2023-11-30T13:10:45.718Z,21.58
2023-11-30T13:13:16.689Z,25.42
2023-11-30T13:15:47.875Z,14.00
2023-11-30T13:18:19.301Z,10.60
2023-11-30T13:20:52.912Z,11.98
2023-11-30T13:23:23.907Z,14.93
2023-11-30T13:25:55.419Z,23.17
2023-11-30T13:28:37.672Z,18.20
2023-11-30T13:31:12.371Z,12.77
2023-11-30T13:33:44.085Z,19.50
2023-11-30T13:36:14.760Z,12.60
2023-11-30T13:38:45.649Z,9.65
2023-11-30T13:41:16.465Z,9.63
2023-11-30T13:43:47.975Z,12.02
2023-11-30T13:46:18.013Z,11.77
2023-11-30T13:48:48.948Z,11.40
2023-11-30T13:51:19.513Z,14.85
2023-11-30T13:53:49.888Z,12.40
2023-11-30T13:56:25.102Z,15.60
2023-11-30T13:58:55.876Z,12.88
2023-11-30T14:01:26.571Z,11.93
2023-11-30T14:03:57.091Z,15.95
2023-11-30T14:06:27.416Z,15.02
2023-11-30T14:08:57.629Z,25.15
2023-11-30T14:11:29.008Z,13.73
2023-11-30T14:13:59.439Z,20.25
2023-11-30T14:16:29.977Z,25.33
2023-11-30T14:19:00.938Z,12.05
2023-11-30T14:21:31.438Z,16.45
2023-11-30T14:24:02.826Z,19.88
2023-11-30T14:26:33.727Z,17.20
2023-11-30T14:29:04.653Z,9.93
2023-11-30T14:31:35.143Z,11.80
2023-11-30T14:34:06.366Z,11.75
2023-11-30T14:36:36.607Z,13.82
2023-11-30T14:39:09.368Z,9.35
2023-11-30T14:41:41.237Z,12.88
2023-11-30T14:44:12.585Z,13.25
2023-11-30T14:46:45.038Z,15.77
2023-11-30T14:49:16.521Z,19.92
2023-11-30T14:51:47.904Z,18.42
2023-11-30T14:54:19.087Z,14.68
2023-11-30T14:56:51.007Z,16.88
2023-11-30T14:59:22.460Z,19.10
2023-11-30T15:01:55.025Z,19.52
2023-11-30T15:04:26.283Z,15.30
2023-11-30T15:06:59.597Z,13.52
2023-11-30T15:09:30.264Z,19.52
2023-11-30T15:12:00.527Z,19.25
2023-11-30T15:14:30.804Z,19.27
2023-11-30T15:17:05.542Z,9.80
2023-11-30T15:19:36.385Z,20.15
2023-11-30T15:22:07.005Z,16.98
2023-11-30T15:24:38.414Z,21.58
2023-11-30T15:27:09.295Z,12.52
2023-11-30T15:29:39.681Z,19.73
2023-11-30T15:32:09.993Z,20.70
2023-11-30T15:34:40.955Z,13.50
2023-11-30T15:37:11.984Z,21.42
2023-11-30T15:39:44.162Z,21.52
2023-11-30T15:42:15.370Z,18.35
2023-11-30T15:44:45.558Z,14.35
2023-11-30T15:47:17.205Z,13.10
2023-11-30T15:49:48.544Z,9.50
2023-11-30T15:52:19.251Z,10.60
2023-11-30T15:54:50.146Z,16.63
2023-11-30T15:57:21.129Z,19.25
2023-11-30T15:59:51.512Z,14.18
2023-11-30T16:02:23.514Z,17.80
2023-11-30T16:04:54.103Z,16.70
2023-11-30T16:07:24.499Z,15.77
2023-11-30T16:09:55.409Z,16.27
2023-11-30T16:12:26.490Z,9.75
2023-11-30T16:14:56.924Z,6.43
2023-11-30T16:17:28.201Z,9.82
2023-11-30T16:19:58.766Z,20.10
2023-11-30T16:22:29.132Z,19.63
2023-11-30T16:24:59.884Z,7.88
2023-11-30T16:27:34.845Z,20.25
2023-11-30T16:30:07.257Z,15.38
2023-11-30T16:32:38.258Z,13.10
2023-11-30T16:35:11.091Z,15.30
2023-11-30T16:37:42.175Z,12.52
2023-11-30T16:40:13.320Z,14.50
2023-11-30T16:42:46.273Z,17.10
2023-11-30T16:45:17.253Z,17.33
2023-11-30T16:47:48.478Z,16.92
2023-11-30T16:50:19.590Z,22.77
2023-11-30T16:52:50.999Z,15.20
2023-11-30T16:55:22.548Z,23.73
2023-11-30T16:57:53.364Z,12.15
2023-11-30T17:00:24.781Z,10.90
2023-11-30T17:02:57.801Z,15.77
2023-11-30T17:05:28.722Z,16.02
2023-11-30T17:07:59.069Z,13.52
2023-11-30T17:10:29.918Z,12.40
2023-11-30T17:13:00.266Z,17.52
2023-11-30T17:15:30.481Z,10.57
2023-11-30T17:18:03.860Z,11.77
2023-11-30T17:20:34.619Z,14.35
2023-11-30T17:23:05.586Z,6.20
2023-11-30T17:25:36.565Z,10.00
2023-11-30T17:28:07.955Z,13.13
2023-11-30T17:30:38.297Z,14.77
2023-11-30T17:33:08.476Z,15.95
2023-11-30T17:35:39.825Z,16.50
2023-11-30T17:38:11.730Z,15.52
2023-11-30T17:40:42.866Z,11.40
2023-11-30T17:43:21.371Z,16.17
2023-11-30T17:45:52.184Z,16.13
2023-11-30T17:48:24.186Z,21.60
2023-11-30T17:50:55.616Z,13.70
2023-11-30T17:53:26.810Z,8.43
2023-11-30T17:55:58.449Z,21.65
2023-11-30T17:58:30.240Z,17.90
2023-11-30T18:01:01.548Z,15.50
2023-11-30T18:03:32.475Z,17.13
2023-11-30T18:06:04.027Z,16.15
2023-11-30T18:08:36.427Z,19.55
2023-11-30T18:11:08.092Z,12.75
2023-11-30T18:13:38.627Z,16.67
2023-11-30T18:16:10.697Z,10.40
2023-11-30T18:18:41.603Z,19.92
2023-11-30T18:21:13.550Z,12.43
2023-11-30T18:23:44.589Z,7.82
2023-11-30T18:26:18.495Z,18.30
2023-11-30T18:28:49.834Z,5.97
2023-11-30T18:31:22.579Z,23.20
2023-11-30T18:33:53.790Z,17.30
2023-11-30T18:36:24.744Z,19.20
2023-11-30T18:38:56.312Z,14.50
2023-11-30T18:41:27.881Z,14.68
2023-11-30T18:43:58.755Z,10.20
2023-11-30T18:46:29.521Z,16.05
2023-11-30T18:49:01.827Z,22.17
2023-11-30T18:51:34.331Z,22.23
2023-11-30T18:54:05.230Z,21.33
2023-11-30T18:56:36.661Z,13.60
2023-11-30T18:59:08.078Z,19.42
2023-11-30T19:01:38.967Z,19.80
2023-11-30T19:04:10.480Z,5.82
2023-11-30T19:06:43.535Z,8.88
2023-11-30T19:09:17.768Z,8.38
2023-11-30T19:11:48.926Z,15.98
2023-11-30T19:14:20.584Z,13.80
2023-11-30T19:16:52.698Z,9.18
2023-11-30T19:19:24.807Z,11.50
2023-11-30T19:21:56.766Z,15.05
2023-11-30T19:24:27.562Z,11.82
2023-11-30T19:26:58.605Z,12.25
2023-11-30T19:29:30.000Z,13.05
2023-11-30T19:32:03.191Z,19.67
2023-11-30T19:34:34.696Z,17.25
2023-11-30T19:37:06.124Z,21.38
2023-11-30T19:39:37.924Z,18.58
2023-11-30T19:42:08.489Z,14.90
2023-11-30T19:44:40.268Z,13.23
2023-11-30T19:47:10.658Z,14.00
2023-11-30T19:49:41.520Z,17.73
2023-11-30T19:52:12.390Z,21.33
2023-11-30T19:54:42.874Z,11.52
2023-11-30T19:57:13.052Z,19.10
2023-11-30T19:59:44.760Z,19.67
2023-11-30T20:02:16.081Z,17.65
2023-11-30T20:04:46.367Z,14.75
2023-11-30T20:07:17.129Z,29.63
2023-11-30T20:09:49.127Z,16.98
2023-11-30T20:12:19.746Z,21.00
2023-11-30T20:14:50.769Z,27.58
2023-11-30T20:17:21.691Z,27.02
2023-11-30T20:19:51.988Z,13.73
2023-11-30T20:22:23.220Z,22.25
2023-11-30T20:24:54.628Z,12.07
2023-11-30T20:27:25.555Z,12.98
2023-11-30T20:29:56.074Z,24.60
2023-11-30T20:32:26.352Z,12.32
2023-11-30T20:34:56.776Z,22.23
2023-11-30T20:37:27.527Z,15.35
2023-11-30T20:39:58.945Z,14.35
2023-11-30T20:42:30.144Z,17.33
2023-11-30T20:45:01.271Z,14.73
2023-11-30T20:47:35.325Z,18.00
2023-11-30T20:50:06.890Z,10.27
2023-11-30T20:52:37.712Z,19.30
2023-11-30T20:55:12.172Z,19.42
2023-11-30T20:57:47.062Z,14.57
2023-11-30T21:02:49.403Z,15.77
2023-11-30T21:05:22.145Z,17.42
2023-11-30T21:07:52.415Z,16.20
2023-11-30T21:10:24.464Z,17.95
2023-11-30T21:12:55.475Z,16.45
2023-11-30T21:15:26.355Z,18.60
2023-11-30T21:17:56.679Z,16.48
2023-11-30T21:20:28.438Z,10.05
2023-11-30T21:23:11.002Z,13.75
2023-11-30T21:25:43.773Z,17.10
2023-11-30T21:28:14.380Z,16.65
2023-11-30T21:30:46.393Z,18.80
2023-11-30T21:33:16.628Z,20.40
2023-11-30T21:35:48.511Z,14.52
2023-11-30T21:38:19.406Z,20.17
2023-11-30T21:40:51.114Z,17.92
2023-11-30T21:43:23.450Z,17.25
2023-11-30T21:45:54.784Z,13.18
2023-11-30T21:48:26.483Z,18.08
2023-11-30T21:50:58.359Z,15.35
2023-11-30T21:53:29.769Z,12.45
2023-11-30T21:56:01.311Z,11.65
2023-11-30T21:58:31.836Z,13.95
2023-11-30T22:01:02.608Z,17.95
2023-11-30T22:03:33.935Z,13.18
2023-11-30T22:06:04.791Z,18.50
2023-11-30T22:08:35.700Z,15.10
2023-11-30T22:11:06.840Z,19.48
2023-11-30T22:13:37.058Z,20.05
2023-11-30T22:16:12.907Z,20.02
2023-11-30T22:18:46.167Z,24.98
2023-11-30T22:21:19.002Z,23.23
2023-11-30T22:23:51.144Z,17.58
2023-11-30T22:26:22.677Z,22.63
2023-11-30T22:28:56.786Z,23.05
2023-11-30T22:31:29.702Z,22.95
2023-11-30T22:33:59.953Z,17.70
2023-11-30T22:36:32.154Z,18.08
2023-11-30T22:39:04.327Z,21.27
2023-11-30T22:41:34.926Z,18.63
2023-11-30T22:44:06.179Z,22.40
2023-11-30T22:46:38.103Z,21.08
2023-11-30T22:49:08.653Z,25.13
2023-11-30T22:51:44.297Z,24.92
2023-11-30T22:54:15.599Z,24.70
2023-11-30T22:56:46.153Z,21.55
2023-11-30T22:59:19.542Z,25.35
2023-11-30T23:01:53.074Z,26.75
2023-11-30T23:04:24.959Z,23.20
2023-11-30T23:06:56.515Z,20.95
2023-11-30T23:09:27.118Z,22.95
2023-11-30T23:11:57.636Z,23.83
2023-11-30T23:14:29.060Z,22.38
2023-11-30T23:17:00.851Z,21.70
2023-11-30T23:19:35.204Z,17.63
2023-11-30T23:22:06.681Z,24.77
2023-11-30T23:24:37.597Z,21.30
2023-11-30T23:27:08.775Z,21.63
2023-11-30T23:29:43.236Z,20.63
2023-11-30T23:32:14.295Z,22.73
2023-11-30T23:34:47.354Z,21.33
2023-11-30T23:37:18.456Z,27.85
2023-11-30T23:39:48.716Z,32.28
2023-11-30T23:42:19.119Z,25.15
2023-11-30T23:44:49.718Z,27.23
2023-11-30T23:47:20.727Z,26.45
2023-11-30T23:49:52.060Z,21.80
2023-11-30T23:52:22.459Z,27.30
2023-11-30T23:54:53.324Z,24.52
2023-11-30T23:57:24.602Z,24.17
2023-11-30T23:59:55.490Z,23.80
